Time,TemperatureF,DewpointF,PressureIn,WindDirection,WindDirectionDegrees,WindSpeedMPH,WindSpeedGustMPH,Humidity,HourlyPrecipIn,Conditions,Clouds,dailyrainin,SoftwareType,DateUTC
2013-08-29 00:02:00,75.2,47.2,28.88,SE,131,0.0,0.0,37,0.00,,CLR,0.00,VWS V14.00,2013-08-29 05:02:00,
2013-08-29 00:07:00,74.8,48.9,28.88,SE,131,0.0,0.0,40,0.00,,CLR,0.00,VWS V14.00,2013-08-29 05:07:00,
2013-08-29 00:12:00,74.5,49.3,28.88,SE,131,0.0,0.0,41,0.00,,CLR,0.00,VWS V14.00,2013-08-29 05:12:00,
2013-08-29 00:17:00,74.5,50.5,28.88,SE,131,0.0,0.0,43,0.00,,CLR,0.00,VWS V14.00,2013-08-29 05:17:00,
2013-08-29 00:22:00,74.7,51.3,28.88,SE,131,0.0,0.0,44,0.00,,CLR,0.00,VWS V14.00,2013-08-29 05:22:00,
2013-08-29 00:27:00,74.7,50.7,28.88,SE,131,0.0,0.0,43,0.00,,CLR,0.00,VWS V14.00,2013-08-29 05:27:00,
2013-08-29 00:32:00,74.3,50.4,28.88,SE,131,0.0,0.0,43,0.00,,CLR,0.00,VWS V14.00,2013-08-29 05:32:00,
2013-08-29 00:37:00,74.3,51.0,28.88,SE,131,0.0,0.0,44,0.00,,CLR,0.00,VWS V14.00,2013-08-29 05:37:00,
2013-08-29 00:42:00,74.1,51.4,28.88,SE,131,0.0,0.0,45,0.00,,CLR,0.00,VWS V14.00,2013-08-29 05:42:00,
2013-08-29 00:47:00,74.1,51.4,28.88,SE,131,0.0,0.0,45,0.00,,CLR,0.00,VWS V14.00,2013-08-29 05:47:00,
2013-08-29 00:52:00,73.9,51.3,28.88,SE,131,0.0,0.0,45,0.00,,CLR,0.00,VWS V14.00,2013-08-29 05:52:00,
2013-08-29 00:57:00,73.6,51.0,28.88,SE,131,0.0,0.0,45,0.00,,CLR,0.00,VWS V14.00,2013-08-29 05:57:00,
2013-08-29 01:02:00,73.4,50.8,28.88,SE,131,0.0,0.0,45,0.00,,FEW250,0.00,VWS V14.00,2013-08-29 06:02:00,
2013-08-29 01:07:00,73.4,51.4,28.88,SE,131,0.0,0.0,46,0.00,,FEW250,0.00,VWS V14.00,2013-08-29 06:07:00,
2013-08-29 01:11:00,73.0,51.1,28.88,SE,131,0.0,0.0,46,0.00,,FEW250,0.00,VWS V14.00,2013-08-29 06:11:00,
2013-08-29 01:17:00,73.0,51.6,28.88,SE,131,0.0,0.0,47,0.00,,FEW250,0.00,VWS V14.00,2013-08-29 06:17:00,
2013-08-29 01:22:00,72.9,51.5,28.88,SE,131,0.0,0.0,47,0.00,,FEW250,0.00,VWS V14.00,2013-08-29 06:22:00,
2013-08-29 01:27:00,72.7,52.4,28.88,SE,131,0.0,0.0,49,0.00,,FEW250,0.00,VWS V14.00,2013-08-29 06:27:00,
2013-08-29 01:32:00,72.7,53.5,28.88,SE,131,0.0,0.0,51,0.00,,FEW250,0.00,VWS V14.00,2013-08-29 06:32:00,
2013-08-29 01:37:00,72.7,53.5,28.88,SE,131,0.0,0.0,51,0.00,,FEW250,0.00,VWS V14.00,2013-08-29 06:37:00,
2013-08-29 01:42:00,72.5,53.4,28.88,SE,131,0.0,0.0,51,0.00,,FEW250,0.00,VWS V14.00,2013-08-29 06:42:00,
2013-08-29 01:47:00,72.3,53.2,28.88,SE,131,0.0,0.0,51,0.00,,FEW250,0.00,VWS V14.00,2013-08-29 06:47:00,
2013-08-29 01:52:00,72.0,52.9,28.88,SE,131,0.0,0.0,51,0.00,,FEW250,0.00,VWS V14.00,2013-08-29 06:52:00,
2013-08-29 01:56:00,72.0,54.9,28.88,SE,131,0.0,0.0,55,0.00,,FEW250,0.00,VWS V14.00,2013-08-29 06:56:00,
2013-08-29 02:01:00,72.0,56.9,28.88,SE,131,0.0,0.0,59,0.00,,FEW050,0.00,VWS V14.00,2013-08-29 07:01:00,
2013-08-29 02:06:00,71.8,56.2,28.88,SE,131,0.0,0.0,58,0.00,,FEW050,0.00,VWS V14.00,2013-08-29 07:06:00,
2013-08-29 02:11:00,71.6,55.6,28.88,SE,131,0.0,0.0,57,0.00,,FEW050,0.00,VWS V14.00,2013-08-29 07:11:00,
2013-08-29 02:16:00,71.4,55.9,28.88,SE,131,0.0,0.0,58,0.00,,FEW050,0.00,VWS V14.00,2013-08-29 07:16:00,
2013-08-29 02:21:00,71.1,55.1,28.88,SE,131,0.0,0.0,57,0.00,,FEW050,0.00,VWS V14.00,2013-08-29 07:21:00,
2013-08-29 02:26:00,70.9,55.4,28.88,SE,131,0.0,0.0,58,0.00,,FEW050,0.00,VWS V14.00,2013-08-29 07:26:00,
2013-08-29 02:31:00,71.1,57.4,28.88,SE,131,0.0,0.0,62,0.00,,FEW050,0.00,VWS V14.00,2013-08-29 07:31:00,
2013-08-29 02:36:00,71.2,58.0,28.88,SE,131,0.0,0.0,63,0.00,,FEW050,0.00,VWS V14.00,2013-08-29 07:36:00,
2013-08-29 02:41:00,71.1,57.4,28.88,SE,131,0.0,0.0,62,0.00,,FEW050,0.00,VWS V14.00,2013-08-29 07:41:00,
2013-08-29 02:46:00,71.1,57.4,28.88,SE,131,0.0,0.0,62,0.00,,FEW050,0.00,VWS V14.00,2013-08-29 07:46:00,
2013-08-29 02:51:00,71.1,57.8,28.88,SE,131,0.0,0.0,63,0.00,,FEW050,0.00,VWS V14.00,2013-08-29 07:51:00,
2013-08-29 02:56:00,71.1,58.3,28.88,SE,131,0.0,0.0,64,0.00,,FEW050,0.00,VWS V14.00,2013-08-29 07:56:00,
2013-08-29 03:01:00,71.1,57.8,28.88,SE,131,0.0,0.0,63,0.00,,SCT150,0.00,VWS V14.00,2013-08-29 08:01:00,
2013-08-29 03:06:00,71.1,57.8,28.88,SE,131,0.0,0.0,63,0.00,,SCT150,0.00,VWS V14.00,2013-08-29 08:06:00,
2013-08-29 03:11:00,70.9,57.2,28.88,SE,131,0.0,0.0,62,0.00,,SCT150,0.00,VWS V14.00,2013-08-29 08:11:00,
2013-08-29 03:16:00,70.7,57.1,28.88,SE,131,0.0,0.0,62,0.00,,SCT150,0.00,VWS V14.00,2013-08-29 08:16:00,
2013-08-29 03:21:00,70.3,56.7,28.88,SE,131,0.0,0.0,62,0.00,,SCT150,0.00,VWS V14.00,2013-08-29 08:21:00,
2013-08-29 03:26:00,70.3,57.2,28.88,SE,131,0.0,0.0,63,0.00,,SCT150,0.00,VWS V14.00,2013-08-29 08:26:00,
2013-08-29 03:31:00,70.3,58.0,28.88,SE,131,0.0,0.0,65,0.00,,SCT150,0.00,VWS V14.00,2013-08-29 08:31:00,
2013-08-29 03:36:00,70.5,58.6,28.88,SE,131,0.0,0.0,66,0.00,,SCT150,0.00,VWS V14.00,2013-08-29 08:36:00,
2013-08-29 03:41:00,70.7,59.2,28.88,SE,131,0.0,0.0,67,0.00,,SCT150,0.00,VWS V14.00,2013-08-29 08:41:00,
2013-08-29 03:46:00,70.5,59.0,28.88,SE,131,0.0,0.0,67,0.00,,SCT150,0.00,VWS V14.00,2013-08-29 08:46:00,
2013-08-29 03:51:00,70.5,58.6,28.88,SE,131,0.0,0.0,66,0.00,,SCT150,0.00,VWS V14.00,2013-08-29 08:51:00,
2013-08-29 03:56:00,70.5,59.0,28.88,SE,131,0.0,0.0,67,0.00,,SCT150,0.00,VWS V14.00,2013-08-29 08:56:00,
2013-08-29 04:01:00,70.3,59.3,28.88,SE,131,0.0,0.0,68,0.00,,SCT250,0.00,VWS V14.00,2013-08-29 09:01:00,
2013-08-29 04:06:00,70.3,59.3,28.88,SE,131,0.0,0.0,68,0.00,,SCT250,0.00,VWS V14.00,2013-08-29 09:06:00,
2013-08-29 04:11:00,70.2,59.1,28.88,SE,131,0.0,0.0,68,0.00,,SCT250,0.00,VWS V14.00,2013-08-29 09:11:00,
2013-08-29 04:16:00,70.2,59.5,28.88,SE,131,0.0,0.0,69,0.00,,SCT250,0.00,VWS V14.00,2013-08-29 09:16:00,
2013-08-29 04:21:00,70.2,59.9,28.88,SE,131,0.0,0.0,70,0.00,,SCT250,0.00,VWS V14.00,2013-08-29 09:21:00,
2013-08-29 04:26:00,70.0,59.8,28.88,SE,131,0.0,0.0,70,0.00,,SCT250,0.00,VWS V14.00,2013-08-29 09:26:00,
2013-08-29 04:31:00,70.0,59.8,28.88,SE,131,0.0,0.0,70,0.00,,SCT250,0.00,VWS V14.00,2013-08-29 09:31:00,
2013-08-29 04:36:00,69.8,59.6,28.88,SE,131,0.0,0.0,70,0.00,,SCT250,0.00,VWS V14.00,2013-08-29 09:36:00,
2013-08-29 04:41:00,69.8,59.6,28.88,SE,131,0.0,0.0,70,0.00,,SCT250,0.00,VWS V14.00,2013-08-29 09:41:00,
2013-08-29 04:46:00,69.8,59.6,28.88,SE,131,0.0,0.0,70,0.00,,SCT250,0.00,VWS V14.00,2013-08-29 09:46:00,
2013-08-29 04:51:00,70.0,60.2,28.88,SE,131,0.0,0.0,71,0.00,,SCT250,0.00,VWS V14.00,2013-08-29 09:51:00,
2013-08-29 04:56:00,70.0,60.5,28.88,SE,131,0.0,0.0,72,0.00,,SCT250,0.00,VWS V14.00,2013-08-29 09:56:00,
2013-08-29 05:01:00,70.0,60.5,28.88,SE,131,0.0,0.0,72,0.00,,SCT300,0.00,VWS V14.00,2013-08-29 10:01:00,
2013-08-29 05:06:00,69.8,60.8,28.88,SE,131,0.0,0.0,73,0.00,,SCT300,0.00,VWS V14.00,2013-08-29 10:06:00,
2013-08-29 05:11:00,69.6,60.2,28.88,SE,131,0.0,0.0,72,0.00,,SCT300,0.00,VWS V14.00,2013-08-29 10:11:00,
2013-08-29 05:16:00,69.6,60.2,28.88,SE,131,0.0,0.0,72,0.00,,SCT300,0.00,VWS V14.00,2013-08-29 10:16:00,
2013-08-29 05:21:00,69.4,60.0,28.88,SE,131,0.0,0.0,72,0.00,,SCT300,0.00,VWS V14.00,2013-08-29 10:21:00,
2013-08-29 05:26:00,69.3,59.9,28.88,SE,131,0.0,0.0,72,0.00,,SCT300,0.00,VWS V14.00,2013-08-29 10:26:00,
2013-08-29 05:31:00,69.3,59.9,28.88,SE,131,0.0,0.0,72,0.00,,SCT300,0.00,VWS V14.00,2013-08-29 10:31:00,
2013-08-29 05:36:00,69.3,60.2,28.88,SE,131,0.0,0.0,73,0.00,,SCT300,0.00,VWS V14.00,2013-08-29 10:36:00,
2013-08-29 05:41:00,69.4,60.0,28.88,SE,131,0.0,0.0,72,0.00,,SCT300,0.00,VWS V14.00,2013-08-29 10:41:00,
2013-08-29 05:46:00,69.3,59.9,28.88,SE,131,0.0,0.0,72,0.00,,SCT300,0.00,VWS V14.00,2013-08-29 10:46:00,
2013-08-29 05:51:00,68.9,59.5,28.88,SE,131,0.0,0.0,72,0.00,,SCT300,0.00,VWS V14.00,2013-08-29 10:51:00,
2013-08-29 05:56:00,68.9,59.5,28.88,SE,131,0.0,0.0,72,0.00,,SCT300,0.00,VWS V14.00,2013-08-29 10:56:00,
2013-08-29 06:01:00,68.9,60.3,28.88,SE,131,0.0,0.0,74,0.00,,FEW200,0.00,VWS V14.00,2013-08-29 11:01:00,
2013-08-29 06:06:00,68.9,60.7,28.88,SE,131,0.0,0.0,75,0.00,,FEW200,0.00,VWS V14.00,2013-08-29 11:06:00,
2013-08-29 06:11:00,68.9,60.3,28.88,SE,131,0.0,0.0,74,0.00,,FEW200,0.00,VWS V14.00,2013-08-29 11:11:00,
2013-08-29 06:16:00,68.9,60.7,28.88,SE,131,0.0,0.0,75,0.00,,FEW200,0.00,VWS V14.00,2013-08-29 11:16:00,
2013-08-29 06:21:00,69.1,61.2,28.88,SE,131,0.0,0.0,76,0.00,,FEW200,0.00,VWS V14.00,2013-08-29 11:21:00,
2013-08-29 06:26:00,68.9,61.0,28.88,SE,131,0.0,0.0,76,0.00,,FEW200,0.00,VWS V14.00,2013-08-29 11:26:00,
2013-08-29 06:31:00,68.7,60.9,28.88,SE,131,0.0,0.0,76,0.00,,FEW200,0.00,VWS V14.00,2013-08-29 11:31:00,
2013-08-29 06:36:00,68.5,60.7,28.88,SE,131,0.0,0.0,76,0.00,,FEW200,0.00,VWS V14.00,2013-08-29 11:36:00,
2013-08-29 06:41:00,68.7,60.9,28.91,SE,131,0.0,0.0,76,0.00,,FEW200,0.00,VWS V14.00,2013-08-29 11:41:00,
2013-08-29 06:46:00,68.5,61.0,28.91,SE,131,0.0,0.0,77,0.00,,FEW200,0.00,VWS V14.00,2013-08-29 11:46:00,
2013-08-29 06:51:00,68.7,61.6,28.91,SE,131,0.0,0.0,78,0.00,,FEW200,0.00,VWS V14.00,2013-08-29 11:51:00,
2013-08-29 06:56:00,68.7,61.6,28.91,SE,131,0.0,0.0,78,0.00,,FEW200,0.00,VWS V14.00,2013-08-29 11:56:00,
2013-08-29 07:01:00,68.9,62.1,28.91,SE,131,0.0,0.0,79,0.00,,FEW300,0.00,VWS V14.00,2013-08-29 12:01:00,
2013-08-29 07:06:00,68.9,61.8,28.91,SE,131,0.0,0.0,78,0.00,,FEW300,0.00,VWS V14.00,2013-08-29 12:06:00,
2013-08-29 07:11:00,69.1,62.3,28.91,SE,131,0.0,0.0,79,0.00,,FEW300,0.00,VWS V14.00,2013-08-29 12:11:00,
2013-08-29 07:16:00,69.8,63.7,28.91,SE,131,0.0,0.0,81,0.00,,FEW300,0.00,VWS V14.00,2013-08-29 12:16:00,
2013-08-29 07:21:00,70.9,65.5,28.91,SE,131,0.0,0.0,83,0.00,,FEW300,0.00,VWS V14.00,2013-08-29 12:21:00,
2013-08-29 07:26:00,71.8,65.3,28.88,SE,131,0.0,0.0,80,0.00,,FEW300,0.00,VWS V14.00,2013-08-29 12:26:00,
2013-08-29 07:31:00,71.8,62.3,28.88,SE,131,0.0,0.0,72,0.00,,FEW300,0.00,VWS V14.00,2013-08-29 12:31:00,
2013-08-29 07:36:00,72.0,62.5,28.88,SE,131,0.0,0.0,72,0.00,,FEW300,0.00,VWS V14.00,2013-08-29 12:36:00,
2013-08-29 07:41:00,72.3,62.8,28.88,SE,131,0.0,0.0,72,0.00,,FEW300,0.00,VWS V14.00,2013-08-29 12:41:00,
2013-08-29 07:46:00,72.5,62.6,28.88,SE,131,0.0,0.0,71,0.00,,FEW300,0.00,VWS V14.00,2013-08-29 12:46:00,
2013-08-29 07:51:00,72.9,62.9,28.88,SE,131,0.0,0.0,71,0.00,,FEW300,0.00,VWS V14.00,2013-08-29 12:51:00,
2013-08-29 07:56:00,73.2,61.6,28.91,SE,131,0.0,0.0,67,0.00,,FEW300,0.00,VWS V14.00,2013-08-29 12:56:00,
2013-08-29 08:01:00,74.5,60.6,28.91,NNE,20,0.0,0.0,62,0.00,,FEW300,0.00,VWS V14.00,2013-08-29 13:01:00,
2013-08-29 08:06:00,75.4,61.5,28.91,NNE,20,0.0,0.0,62,0.00,,FEW300,0.00,VWS V14.00,2013-08-29 13:06:00,
2013-08-29 08:11:00,76.6,63.6,28.91,NNE,23,0.0,0.0,64,0.00,,FEW300,0.00,VWS V14.00,2013-08-29 13:11:00,
2013-08-29 08:16:00,80.1,54.9,28.91,NNE,23,0.0,0.0,42,0.00,,FEW300,0.00,VWS V14.00,2013-08-29 13:16:00,
2013-08-29 08:21:00,82.4,49.6,28.91,NNE,23,0.0,0.0,32,0.00,,FEW300,0.00,VWS V14.00,2013-08-29 13:21:00,
2013-08-29 08:26:00,84.6,48.8,28.91,ENE,70,0.0,0.0,29,0.00,,FEW300,0.00,VWS V14.00,2013-08-29 13:26:00,
2013-08-29 08:31:00,86.7,44.5,28.91,North,3,0.0,0.0,23,0.00,,FEW300,0.00,VWS V14.00,2013-08-29 13:31:00,
2013-08-29 08:36:00,85.6,46.8,28.91,NE,50,2.2,3.1,26,0.00,,FEW300,0.00,VWS V14.00,2013-08-29 13:36:00,
2013-08-29 08:41:00,86.2,46.3,28.91,NNE,21,0.0,3.1,25,0.00,,FEW300,0.00,VWS V14.00,2013-08-29 13:41:00,
2013-08-29 08:46:00,88.5,43.6,28.91,NNE,25,0.0,3.1,21,0.00,,FEW300,0.00,VWS V14.00,2013-08-29 13:46:00,
2013-08-29 08:51:00,90.9,44.3,28.91,NNE,26,0.0,0.0,20,0.00,,FEW300,0.00,VWS V14.00,2013-08-29 13:51:00,
2013-08-29 08:56:00,93.0,41.8,28.91,ENE,60,2.7,2.7,17,0.00,,FEW300,0.00,VWS V14.00,2013-08-29 13:56:00,
2013-08-29 09:01:00,93.4,43.6,28.91,ENE,60,0.0,0.0,18,0.00,,BKN300,0.00,VWS V14.00,2013-08-29 14:01:00,
2013-08-29 09:06:00,93.4,42.1,28.91,NNE,32,0.0,3.6,17,0.00,,BKN300,0.00,VWS V14.00,2013-08-29 14:06:00,
2013-08-29 09:11:00,92.8,43.2,28.91,NE,41,0.0,0.0,18,0.00,,BKN300,0.00,VWS V14.00,2013-08-29 14:11:00,
2013-08-29 09:16:00,93.7,42.4,28.91,East,95,0.0,0.0,17,0.00,,BKN300,0.00,VWS V14.00,2013-08-29 14:16:00,
2013-08-29 09:21:00,94.5,41.4,28.91,ENE,62,2.7,3.6,16,0.00,,BKN300,0.00,VWS V14.00,2013-08-29 14:21:00,
2013-08-29 09:26:00,92.7,41.5,28.91,NE,50,3.1,4.9,17,0.00,,BKN300,0.00,VWS V14.00,2013-08-29 14:26:00,
2013-08-29 09:31:00,93.9,42.5,28.91,NE,39,3.1,3.1,17,0.00,,BKN300,0.00,VWS V14.00,2013-08-29 14:31:00,
2013-08-29 09:36:00,93.6,42.2,28.91,North,357,2.7,4.0,17,0.00,,BKN300,0.00,VWS V14.00,2013-08-29 14:36:00,
2013-08-29 09:41:00,93.4,42.1,28.91,NE,52,0.0,5.4,17,0.00,,BKN300,0.00,VWS V14.00,2013-08-29 14:41:00,
2013-08-29 09:46:00,94.6,43.1,28.91,ENE,62,0.0,5.4,17,0.00,,BKN300,0.00,VWS V14.00,2013-08-29 14:46:00,
2013-08-29 09:51:00,98.4,44.5,28.91,ENE,61,0.0,0.0,16,0.00,,BKN300,0.00,VWS V14.00,2013-08-29 14:51:00,
2013-08-29 09:56:00,99.0,39.6,28.91,NE,44,0.0,4.9,13,0.00,,BKN300,0.00,VWS V14.00,2013-08-29 14:56:00,
2013-08-29 10:01:00,98.6,39.3,28.91,ESE,119,2.7,3.1,13,0.00,,SCT260,0.00,VWS V14.00,2013-08-29 15:01:00,
2013-08-29 10:06:00,97.2,43.5,28.91,NE,54,0.0,3.1,16,0.00,,SCT260,0.00,VWS V14.00,2013-08-29 15:06:00,
2013-08-29 10:11:00,97.9,44.1,28.91,NE,56,0.0,3.1,16,0.00,,SCT260,0.00,VWS V14.00,2013-08-29 15:11:00,
2013-08-29 10:16:00,99.3,39.9,28.91,NE,40,0.0,3.1,13,0.00,,SCT260,0.00,VWS V14.00,2013-08-29 15:16:00,
2013-08-29 10:21:00,99.7,40.2,28.91,East,96,0.0,2.7,13,0.00,,SCT260,0.00,VWS V14.00,2013-08-29 15:21:00,
2013-08-29 10:26:00,100.8,38.9,28.91,NE,44,4.0,5.4,12,0.00,,SCT260,0.00,VWS V14.00,2013-08-29 15:26:00,
2013-08-29 10:31:00,100.6,38.8,28.91,East,82,0.0,4.0,12,0.00,,SCT260,0.00,VWS V14.00,2013-08-29 15:31:00,
2013-08-29 10:36:00,99.5,40.0,28.91,NE,53,4.0,5.8,13,0.00,,SCT260,0.00,VWS V14.00,2013-08-29 15:36:00,
2013-08-29 10:41:00,96.4,43.0,28.91,NE,41,0.0,4.0,16,0.00,,SCT260,0.00,VWS V14.00,2013-08-29 15:41:00,
2013-08-29 10:46:00,98.6,44.7,28.91,NE,56,0.0,4.0,16,0.00,,SCT260,0.00,VWS V14.00,2013-08-29 15:46:00,
2013-08-29 10:51:00,100.4,44.4,28.91,SE,131,2.7,3.1,15,0.00,,SCT260,0.00,VWS V14.00,2013-08-29 15:51:00,
2013-08-29 10:56:00,101.3,39.3,28.91,SE,141,3.1,4.0,12,0.00,,SCT260,0.00,VWS V14.00,2013-08-29 15:56:00,
2013-08-29 11:01:00,102.7,40.5,28.91,North,353,0.0,2.7,12,0.00,,FEW260,0.00,VWS V14.00,2013-08-29 16:01:00,
2013-08-29 11:06:00,102.4,40.2,28.91,ESE,121,2.7,4.0,12,0.00,,FEW260,0.00,VWS V14.00,2013-08-29 16:06:00,
2013-08-29 11:11:00,101.5,39.5,28.91,NE,54,0.0,2.7,12,0.00,,FEW260,0.00,VWS V14.00,2013-08-29 16:11:00,
2013-08-29 11:16:00,103.1,40.7,28.91,NE,56,0.0,3.1,12,0.00,,FEW260,0.00,VWS V14.00,2013-08-29 16:16:00,
2013-08-29 11:21:00,103.5,41.0,28.91,SE,146,3.6,4.9,12,0.00,,FEW260,0.00,VWS V14.00,2013-08-29 16:21:00,
2013-08-29 11:26:00,102.2,40.0,28.91,SE,124,3.1,4.9,12,0.00,,FEW260,0.00,VWS V14.00,2013-08-29 16:26:00,
2013-08-29 11:31:00,103.3,40.9,28.91,East,82,2.7,3.1,12,0.00,,FEW260,0.00,VWS V14.00,2013-08-29 16:31:00,
2013-08-29 11:36:00,103.8,41.3,28.91,NE,38,0.0,3.1,12,0.00,,FEW260,0.00,VWS V14.00,2013-08-29 16:36:00,
2013-08-29 11:41:00,105.3,42.4,28.91,ESE,117,2.2,3.6,12,0.00,,FEW260,0.00,VWS V14.00,2013-08-29 16:41:00,
2013-08-29 11:46:00,104.5,34.5,28.91,SE,127,3.6,5.4,9,0.00,,FEW260,0.00,VWS V14.00,2013-08-29 16:46:00,
2013-08-29 11:51:00,103.8,41.3,28.91,SE,131,0.0,0.0,12,0.00,,FEW260,0.00,VWS V14.00,2013-08-29 16:51:00,
2013-08-29 11:56:00,104.0,41.4,28.91,SE,128,4.0,6.3,12,0.00,,FEW260,0.00,VWS V14.00,2013-08-29 16:56:00,
2013-08-29 12:01:00,102.7,33.2,28.91,SE,126,5.4,5.4,9,0.00,,FEW260,0.00,VWS V14.00,2013-08-29 17:01:00,
2013-08-29 12:06:00,101.8,39.8,28.91,ESE,118,6.3,6.3,12,0.00,,FEW260,0.00,VWS V14.00,2013-08-29 17:06:00,
2013-08-29 12:11:00,103.3,33.6,28.88,SE,136,4.0,4.9,9,0.00,,FEW260,0.00,VWS V14.00,2013-08-29 17:11:00,
2013-08-29 12:16:00,103.5,33.7,28.88,South,178,0.0,4.9,9,0.00,,FEW260,0.00,VWS V14.00,2013-08-29 17:16:00,
2013-08-29 12:21:00,101.5,39.5,28.88,East,101,0.0,4.0,12,0.00,,FEW260,0.00,VWS V14.00,2013-08-29 17:21:00,
2013-08-29 12:26:00,99.9,40.3,28.88,ENE,59,5.4,6.7,13,0.00,,FEW260,0.00,VWS V14.00,2013-08-29 17:26:00,
2013-08-29 12:31:00,99.7,40.2,28.88,SE,134,3.6,4.0,13,0.00,,FEW260,0.00,VWS V14.00,2013-08-29 17:31:00,
2013-08-29 12:36:00,99.5,40.0,28.88,SE,140,4.0,4.0,13,0.00,,FEW260,0.00,VWS V14.00,2013-08-29 17:36:00,
2013-08-29 12:41:00,98.1,38.9,28.88,East,86,3.1,3.1,13,0.00,,FEW260,0.00,VWS V14.00,2013-08-29 17:41:00,
2013-08-29 12:46:00,96.4,43.0,28.88,NNE,19,0.0,5.8,16,0.00,,FEW260,0.00,VWS V14.00,2013-08-29 17:46:00,
2013-08-29 12:51:00,95.5,42.2,28.88,SE,133,2.7,4.0,16,0.00,,FEW260,0.00,VWS V14.00,2013-08-29 17:51:00,
2013-08-29 12:56:00,96.6,44.7,28.88,ESE,121,3.1,4.0,17,0.00,,FEW260,0.00,VWS V14.00,2013-08-29 17:56:00,
2013-08-29 13:01:00,98.4,44.5,28.88,ENE,57,2.7,6.3,16,0.00,,FEW260,0.00,VWS V14.00,2013-08-29 18:01:00,
2013-08-29 13:06:00,100.0,44.1,28.88,SE,126,3.6,6.3,15,0.00,,FEW260,0.00,VWS V14.00,2013-08-29 18:06:00,
2013-08-29 13:11:00,101.1,45.0,28.85,ENE,68,3.6,4.0,15,0.00,,FEW260,0.00,VWS V14.00,2013-08-29 18:11:00,
2013-08-29 13:16:00,103.1,44.7,28.85,NNE,21,0.0,4.0,14,0.00,,FEW260,0.00,VWS V14.00,2013-08-29 18:16:00,
2013-08-29 13:21:00,104.4,41.7,28.85,NNW,348,2.7,3.1,12,0.00,,FEW260,0.00,VWS V14.00,2013-08-29 18:21:00,
2013-08-29 13:26:00,104.4,41.7,28.85,SE,125,0.0,5.4,12,0.00,,FEW260,0.00,VWS V14.00,2013-08-29 18:26:00,
2013-08-29 13:31:00,102.6,40.3,28.85,SE,126,3.1,7.2,12,0.00,,FEW260,0.00,VWS V14.00,2013-08-29 18:31:00,
2013-08-29 13:36:00,102.9,40.6,28.85,East,90,3.1,8.1,12,0.00,,FEW260,0.00,VWS V14.00,2013-08-29 18:36:00,
2013-08-29 13:41:00,104.4,41.7,28.85,ENE,73,5.4,5.4,12,0.00,,FEW260,0.00,VWS V14.00,2013-08-29 18:41:00,
2013-08-29 13:46:00,103.8,41.3,28.85,ESE,111,3.6,8.1,12,0.00,,FEW260,0.00,VWS V14.00,2013-08-29 18:46:00,
2013-08-29 13:51:00,103.8,41.3,28.85,NE,42,4.0,5.8,12,0.00,,FEW260,0.00,VWS V14.00,2013-08-29 18:51:00,
2013-08-29 13:56:00,105.1,34.9,28.85,SSE,158,0.0,6.3,9,0.00,,FEW260,0.00,VWS V14.00,2013-08-29 18:56:00,
2013-08-29 14:01:00,104.7,34.6,28.85,SE,142,3.1,4.0,9,0.00,,FEW130,0.00,VWS V14.00,2013-08-29 19:01:00,
2013-08-29 14:06:00,101.5,34.9,28.85,ENE,69,3.1,6.3,10,0.00,,FEW130,0.00,VWS V14.00,2013-08-29 19:06:00,
2013-08-29 14:11:00,103.5,41.0,28.85,SE,139,3.6,3.6,12,0.00,,FEW130,0.00,VWS V14.00,2013-08-29 19:11:00,
2013-08-29 14:16:00,106.0,35.6,28.85,SE,143,0.0,4.9,9,0.00,,FEW130,0.00,VWS V14.00,2013-08-29 19:16:00,
2013-08-29 14:21:00,108.1,34.2,28.85,SSE,147,5.4,5.4,8,0.00,,FEW130,0.00,VWS V14.00,2013-08-29 19:21:00,
2013-08-29 14:26:00,108.3,34.3,28.85,SE,134,2.2,5.4,8,0.00,,FEW130,0.00,VWS V14.00,2013-08-29 19:26:00,
2013-08-29 14:31:00,107.1,36.4,28.85,ESE,115,3.1,5.4,9,0.00,,FEW130,0.00,VWS V14.00,2013-08-29 19:31:00,
2013-08-29 14:36:00,106.3,35.8,28.85,ESE,115,3.1,5.8,9,0.00,,FEW130,0.00,VWS V14.00,2013-08-29 19:36:00,
2013-08-29 14:41:00,103.1,33.4,28.85,SE,143,0.0,3.6,9,0.00,,FEW130,0.00,VWS V14.00,2013-08-29 19:41:00,
2013-08-29 14:46:00,102.0,39.9,28.85,East,96,2.2,5.4,12,0.00,,FEW130,0.00,VWS V14.00,2013-08-29 19:46:00,
2013-08-29 14:51:00,99.9,40.3,28.85,ENE,61,5.8,6.3,13,0.00,,FEW130,0.00,VWS V14.00,2013-08-29 19:51:00,
2013-08-29 14:56:00,98.2,39.0,28.85,SE,130,2.7,6.3,13,0.00,,FEW130,0.00,VWS V14.00,2013-08-29 19:56:00,
2013-08-29 15:01:00,97.3,43.7,28.85,ESE,112,2.2,2.2,16,0.00,,SCT200,0.00,VWS V14.00,2013-08-29 20:01:00,
2013-08-29 15:06:00,96.4,43.0,28.85,SE,138,0.0,4.9,16,0.00,,SCT200,0.00,VWS V14.00,2013-08-29 20:06:00,
2013-08-29 15:11:00,99.5,43.7,28.85,East,87,2.7,3.6,15,0.00,,SCT200,0.00,VWS V14.00,2013-08-29 20:11:00,
2013-08-29 15:16:00,104.2,41.6,28.82,SE,139,0.0,4.0,12,0.00,,SCT200,0.00,VWS V14.00,2013-08-29 20:16:00,
2013-08-29 15:21:00,107.8,42.0,28.82,ENE,62,4.0,5.4,11,0.00,,SCT200,0.00,VWS V14.00,2013-08-29 20:21:00,
2013-08-29 15:26:00,106.0,40.7,28.82,ENE,74,3.1,7.2,11,0.00,,SCT200,0.00,VWS V14.00,2013-08-29 20:26:00,
2013-08-29 15:31:00,99.7,40.2,28.82,ESE,116,0.0,3.1,13,0.00,,SCT200,0.00,VWS V14.00,2013-08-29 20:31:00,
2013-08-29 15:36:00,97.2,43.5,28.82,SE,124,3.1,5.4,16,0.00,,SCT200,0.00,VWS V14.00,2013-08-29 20:36:00,
2013-08-29 15:41:00,96.8,43.3,28.82,SE,132,3.6,5.4,16,0.00,,SCT200,0.00,VWS V14.00,2013-08-29 20:41:00,
2013-08-29 15:46:00,95.9,42.5,28.82,ESE,116,2.7,5.8,16,0.00,,SCT200,0.00,VWS V14.00,2013-08-29 20:46:00,
2013-08-29 15:51:00,95.0,43.4,28.82,ENE,63,5.4,5.8,17,0.00,,SCT200,0.00,VWS V14.00,2013-08-29 20:51:00,
2013-08-29 15:56:00,94.8,43.3,28.82,East,88,0.0,5.8,17,0.00,,SCT200,0.00,VWS V14.00,2013-08-29 20:56:00,
2013-08-29 16:01:00,94.8,43.3,28.82,ESE,120,3.1,3.1,17,0.00,,SCT200,0.00,VWS V14.00,2013-08-29 21:01:00,
2013-08-29 16:06:00,94.5,43.0,28.82,SE,146,2.7,6.3,17,0.00,,SCT200,0.00,VWS V14.00,2013-08-29 21:06:00,
2013-08-29 16:11:00,94.3,42.8,28.82,East,88,0.0,2.2,17,0.00,,SCT200,0.00,VWS V14.00,2013-08-29 21:11:00,
2013-08-29 16:16:00,94.3,42.8,28.82,SE,126,3.6,8.3,17,0.00,,SCT200,0.00,VWS V14.00,2013-08-29 21:16:00,
2013-08-29 16:21:00,94.5,43.0,28.82,SE,128,2.7,4.0,17,0.00,,SCT200,0.00,VWS V14.00,2013-08-29 21:21:00,
2013-08-29 16:26:00,94.3,44.3,28.82,ESE,114,2.7,8.3,18,0.00,,SCT200,0.00,VWS V14.00,2013-08-29 21:26:00,
2013-08-29 16:31:00,94.6,43.1,28.82,ESE,120,3.6,4.0,17,0.00,,SCT200,0.00,VWS V14.00,2013-08-29 21:31:00,
2013-08-29 16:36:00,94.3,44.3,28.82,ENE,59,2.2,10.5,18,0.00,,SCT200,0.00,VWS V14.00,2013-08-29 21:36:00,
2013-08-29 16:41:00,94.3,44.3,28.82,SE,126,2.7,4.0,18,0.00,,SCT200,0.00,VWS V14.00,2013-08-29 21:41:00,
2013-08-29 16:46:00,95.0,43.4,28.82,SE,143,4.9,7.6,17,0.00,,SCT200,0.00,VWS V14.00,2013-08-29 21:46:00,
2013-08-29 16:51:00,94.3,44.3,28.82,ENE,64,5.4,5.4,18,0.00,,SCT200,0.00,VWS V14.00,2013-08-29 21:51:00,
2013-08-29 16:56:00,93.0,44.7,28.82,ENE,78,3.6,6.7,19,0.00,,SCT200,0.00,VWS V14.00,2013-08-29 21:56:00,
2013-08-29 17:01:00,92.8,44.6,28.82,ENE,78,3.6,6.7,19,0.00,,SCT200,0.00,VWS V14.00,2013-08-29 22:01:00,
2013-08-29 17:06:00,92.7,44.4,28.82,SE,132,3.6,6.7,19,0.00,,SCT200,0.00,VWS V14.00,2013-08-29 22:06:00,
2013-08-29 17:11:00,92.5,45.6,28.82,SE,130,4.0,4.0,20,0.00,,SCT200,0.00,VWS V14.00,2013-08-29 22:11:00,
2013-08-29 17:16:00,92.3,44.1,28.82,NE,49,3.1,4.0,19,0.00,,SCT200,0.00,VWS V14.00,2013-08-29 22:16:00,
2013-08-29 17:21:00,92.3,44.1,28.82,ENE,57,4.0,4.0,19,0.00,,SCT200,0.00,VWS V14.00,2013-08-29 22:21:00,
2013-08-29 17:26:00,92.1,44.0,28.79,NE,55,3.1,4.0,19,0.00,,SCT200,0.00,VWS V14.00,2013-08-29 22:26:00,
2013-08-29 17:31:00,91.9,43.8,28.79,SE,125,0.0,0.0,19,0.00,,SCT200,0.00,VWS V14.00,2013-08-29 22:31:00,
2013-08-29 17:36:00,91.8,43.7,28.79,East,97,0.0,3.6,19,0.00,,SCT200,0.00,VWS V14.00,2013-08-29 22:36:00,
2013-08-29 17:41:00,91.8,45.0,28.79,East,85,0.0,4.9,20,0.00,,SCT200,0.00,VWS V14.00,2013-08-29 22:41:00,
2013-08-29 17:46:00,91.6,44.9,28.79,NNE,22,3.1,4.9,20,0.00,,SCT200,0.00,VWS V14.00,2013-08-29 22:46:00,
2013-08-29 17:51:00,91.4,44.7,28.79,ENE,68,6.3,6.3,20,0.00,,SCT200,0.00,VWS V14.00,2013-08-29 22:51:00,
2013-08-29 17:56:00,91.2,45.9,28.79,NE,55,0.0,7.6,21,0.00,,SCT200,0.00,VWS V14.00,2013-08-29 22:56:00,
2013-08-29 18:01:00,91.0,45.7,28.79,NE,45,5.4,7.6,21,0.00,,FEW220,0.00,VWS V14.00,2013-08-29 23:01:00,
2013-08-29 18:06:00,91.0,45.7,28.79,NE,35,2.7,7.6,21,0.00,,FEW220,0.00,VWS V14.00,2013-08-29 23:06:00,
2013-08-29 18:11:00,91.0,45.7,28.79,ENE,64,0.0,4.0,21,0.00,,FEW220,0.00,VWS V14.00,2013-08-29 23:11:00,
2013-08-29 18:16:00,90.9,46.8,28.79,ENE,71,0.0,5.4,22,0.00,,FEW220,0.00,VWS V14.00,2013-08-29 23:16:00,
2013-08-29 18:21:00,90.7,46.7,28.79,ENE,63,0.0,0.0,22,0.00,,FEW220,0.00,VWS V14.00,2013-08-29 23:21:00,
2013-08-29 18:26:00,90.5,47.7,28.79,East,86,0.0,4.0,23,0.00,,FEW220,0.00,VWS V14.00,2013-08-29 23:26:00,
2013-08-29 18:31:00,90.7,47.8,28.79,East,90,0.0,3.1,23,0.00,,FEW220,0.00,VWS V14.00,2013-08-29 23:31:00,
2013-08-29 18:36:00,90.9,48.0,28.79,NE,41,0.0,3.6,23,0.00,,FEW220,0.00,VWS V14.00,2013-08-29 23:36:00,
2013-08-29 18:41:00,90.7,47.8,28.79,NNE,23,0.0,0.0,23,0.00,,FEW220,0.00,VWS V14.00,2013-08-29 23:41:00,
2013-08-29 18:46:00,90.7,47.8,28.79,NE,54,0.0,0.0,23,0.00,,FEW220,0.00,VWS V14.00,2013-08-29 23:46:00,
2013-08-29 18:51:00,91.0,48.1,28.79,NE,50,0.0,0.0,23,0.00,,FEW220,0.00,VWS V14.00,2013-08-29 23:51:00,
2013-08-29 18:56:00,90.1,49.6,28.79,NE,50,0.0,0.0,25,0.00,,FEW220,0.00,VWS V14.00,2013-08-29 23:56:00,
2013-08-29 19:01:00,89.6,49.2,28.79,NE,42,0.0,0.0,25,0.00,,FEW250,0.00,VWS V14.00,2013-08-30 00:01:00,
2013-08-29 19:06:00,89.1,50.8,28.79,NE,49,0.0,0.0,27,0.00,,FEW250,0.00,VWS V14.00,2013-08-30 00:06:00,
2013-08-29 19:11:00,88.7,51.4,28.79,NE,49,0.0,0.0,28,0.00,,FEW250,0.00,VWS V14.00,2013-08-30 00:11:00,
2013-08-29 19:16:00,88.3,51.1,28.79,NE,49,0.0,0.0,28,0.00,,FEW250,0.00,VWS V14.00,2013-08-30 00:16:00,
2013-08-29 19:21:00,88.0,50.8,28.79,NE,49,0.0,0.0,28,0.00,,FEW250,0.00,VWS V14.00,2013-08-30 00:21:00,
2013-08-29 19:26:00,87.6,51.5,28.79,NE,49,0.0,0.0,29,0.00,,FEW250,0.00,VWS V14.00,2013-08-30 00:26:00,
2013-08-29 19:31:00,87.3,51.2,28.79,ENE,73,0.0,0.0,29,0.00,,FEW250,0.00,VWS V14.00,2013-08-30 00:31:00,
2013-08-29 19:36:00,86.9,50.8,28.79,ENE,73,0.0,0.0,29,0.00,,FEW250,0.00,VWS V14.00,2013-08-30 00:36:00,
2013-08-29 19:41:00,86.4,51.3,28.79,ENE,68,0.0,0.0,30,0.00,,FEW250,0.00,VWS V14.00,2013-08-30 00:41:00,
2013-08-29 19:46:00,86.0,51.0,28.79,NE,44,0.0,3.6,30,0.00,,FEW250,0.00,VWS V14.00,2013-08-30 00:46:00,
2013-08-29 19:51:00,85.5,51.4,28.79,NE,44,0.0,0.0,31,0.00,,FEW250,0.00,VWS V14.00,2013-08-30 00:51:00,
2013-08-29 19:56:00,85.1,51.1,28.79,NE,44,0.0,0.0,31,0.00,,FEW250,0.00,VWS V14.00,2013-08-30 00:56:00,
2013-08-29 20:01:00,84.6,51.5,28.79,ENE,65,0.0,0.0,32,0.00,,FEW250,0.00,VWS V14.00,2013-08-30 01:01:00,
2013-08-29 20:06:00,84.2,51.2,28.79,ENE,75,0.0,0.0,32,0.00,,FEW250,0.00,VWS V14.00,2013-08-30 01:06:00,
2013-08-29 20:11:00,83.8,51.7,28.79,ENE,74,0.0,0.0,33,0.00,,FEW250,0.00,VWS V14.00,2013-08-30 01:11:00,
2013-08-29 20:16:00,83.5,52.2,28.79,ENE,75,0.0,0.0,34,0.00,,FEW250,0.00,VWS V14.00,2013-08-30 01:16:00,
2013-08-29 20:21:00,83.3,52.0,28.79,ENE,61,0.0,2.7,34,0.00,,FEW250,0.00,VWS V14.00,2013-08-30 01:21:00,
2013-08-29 20:26:00,82.9,52.5,28.79,ENE,61,0.0,2.7,35,0.00,,FEW250,0.00,VWS V14.00,2013-08-30 01:26:00,
2013-08-29 20:31:00,82.8,53.9,28.79,ENE,61,0.0,0.0,37,0.00,,FEW250,0.00,VWS V14.00,2013-08-30 01:31:00,
2013-08-29 20:36:00,82.6,53.7,28.79,ENE,61,0.0,0.0,37,0.00,,FEW250,0.00,VWS V14.00,2013-08-30 01:36:00,
2013-08-29 20:41:00,82.2,53.4,28.79,ENE,61,0.0,0.0,37,0.00,,FEW250,0.00,VWS V14.00,2013-08-30 01:41:00,
2013-08-29 20:46:00,82.0,54.0,28.79,ENE,61,0.0,0.0,38,0.00,,FEW250,0.00,VWS V14.00,2013-08-30 01:46:00,
2013-08-29 20:51:00,81.9,54.5,28.79,ENE,61,0.0,0.0,39,0.00,,FEW250,0.00,VWS V14.00,2013-08-30 01:51:00,
2013-08-29 20:56:00,81.7,54.3,28.79,ENE,61,0.0,0.0,39,0.00,,FEW250,0.00,VWS V14.00,2013-08-30 01:56:00,
2013-08-29 21:01:00,81.7,54.3,28.79,ENE,61,0.0,0.0,39,0.00,,FEW065,0.00,VWS V14.00,2013-08-30 02:01:00,
2013-08-29 21:06:00,81.5,54.2,28.79,ENE,61,0.0,0.0,39,0.00,,FEW065,0.00,VWS V14.00,2013-08-30 02:06:00,
2013-08-29 21:11:00,81.3,54.7,28.79,ENE,61,0.0,0.0,40,0.00,,FEW065,0.00,VWS V14.00,2013-08-30 02:11:00,
2013-08-29 21:16:00,81.0,54.4,28.79,ENE,61,0.0,0.0,40,0.00,,FEW065,0.00,VWS V14.00,2013-08-30 02:16:00,
2013-08-29 21:21:00,80.8,54.2,28.79,ENE,61,0.0,0.0,40,0.00,,FEW065,0.00,VWS V14.00,2013-08-30 02:21:00,
2013-08-29 21:26:00,80.6,54.8,28.79,ENE,61,0.0,0.0,41,0.00,,FEW065,0.00,VWS V14.00,2013-08-30 02:26:00,
2013-08-29 21:31:00,80.4,55.2,28.79,ENE,61,0.0,0.0,42,0.00,,FEW065,0.00,VWS V14.00,2013-08-30 02:31:00,
2013-08-29 21:36:00,80.2,55.1,28.79,ENE,61,0.0,0.0,42,0.00,,FEW065,0.00,VWS V14.00,2013-08-30 02:36:00,
2013-08-29 21:41:00,80.1,54.9,28.79,ENE,61,0.0,0.0,42,0.00,,FEW065,0.00,VWS V14.00,2013-08-30 02:41:00,
2013-08-29 21:46:00,79.9,55.4,28.79,ENE,61,0.0,0.0,43,0.00,,FEW065,0.00,VWS V14.00,2013-08-30 02:46:00,
2013-08-29 21:51:00,79.7,55.2,28.79,ENE,61,0.0,0.0,43,0.00,,FEW065,0.00,VWS V14.00,2013-08-30 02:51:00,
2013-08-29 21:56:00,79.7,55.9,28.79,ENE,61,0.0,0.0,44,0.00,,FEW065,0.00,VWS V14.00,2013-08-30 02:56:00,
2013-08-29 22:01:00,79.7,55.9,28.79,ENE,61,0.0,0.0,44,0.00,,CLR,0.00,VWS V14.00,2013-08-30 03:01:00,
2013-08-29 22:06:00,79.5,55.7,28.79,ENE,61,0.0,0.0,44,0.00,,CLR,0.00,VWS V14.00,2013-08-30 03:06:00,
2013-08-29 22:11:00,79.3,56.2,28.79,ENE,61,0.0,0.0,45,0.00,,CLR,0.00,VWS V14.00,2013-08-30 03:11:00,
2013-08-29 22:16:00,79.2,56.6,28.79,ENE,61,0.0,0.0,46,0.00,,CLR,0.00,VWS V14.00,2013-08-30 03:16:00,
2013-08-29 22:21:00,79.2,56.6,28.79,ENE,61,0.0,0.0,46,0.00,,CLR,0.00,VWS V14.00,2013-08-30 03:21:00,
2013-08-29 22:26:00,79.2,56.6,28.79,ENE,61,0.0,0.0,46,0.00,,CLR,0.00,VWS V14.00,2013-08-30 03:26:00,
2013-08-29 22:31:00,79.0,57.0,28.79,ENE,61,0.0,0.0,47,0.00,,CLR,0.00,VWS V14.00,2013-08-30 03:31:00,
2013-08-29 22:36:00,78.8,56.9,28.79,ENE,61,0.0,0.0,47,0.00,,CLR,0.00,VWS V14.00,2013-08-30 03:36:00,
2013-08-29 22:41:00,78.8,56.9,28.79,ENE,61,0.0,0.0,47,0.00,,CLR,0.00,VWS V14.00,2013-08-30 03:41:00,
2013-08-29 22:46:00,78.6,57.3,28.79,ENE,61,0.0,0.0,48,0.00,,CLR,0.00,VWS V14.00,2013-08-30 03:46:00,
2013-08-29 22:51:00,78.4,57.1,28.79,ENE,61,0.0,0.0,48,0.00,,CLR,0.00,VWS V14.00,2013-08-30 03:51:00,
2013-08-29 22:56:00,78.3,57.0,28.79,ENE,61,0.0,0.0,48,0.00,,CLR,0.00,VWS V14.00,2013-08-30 03:56:00,
2013-08-29 23:01:00,78.1,57.4,28.79,ENE,61,0.0,0.0,49,0.00,,CLR,0.00,VWS V14.00,2013-08-30 04:01:00,
2013-08-29 23:04:00,77.7,57.1,28.79,ENE,61,0.0,0.0,49,0.00,,CLR,0.00,VWS V14.00,2013-08-30 04:04:00,
2013-08-29 23:09:00,77.5,56.9,28.79,ENE,61,0.0,0.0,49,0.00,,CLR,0.00,VWS V14.00,2013-08-30 04:09:00,
2013-08-29 23:14:00,77.2,57.7,28.79,ENE,61,0.0,0.0,51,0.00,,CLR,0.00,VWS V14.00,2013-08-30 04:14:00,
2013-08-29 23:19:00,77.0,57.5,28.79,ENE,61,0.0,0.0,51,0.00,,CLR,0.00,VWS V14.00,2013-08-30 04:19:00,
2013-08-29 23:24:00,76.6,57.7,28.79,ENE,61,0.0,0.0,52,0.00,,CLR,0.00,VWS V14.00,2013-08-30 04:24:00,
2013-08-29 23:29:00,76.6,59.3,28.79,ENE,61,0.0,0.0,55,0.00,,CLR,0.00,VWS V14.00,2013-08-30 04:29:00,
2013-08-29 23:34:00,76.5,59.1,28.79,ENE,61,0.0,0.0,55,0.00,,CLR,0.00,VWS V14.00,2013-08-30 04:34:00,
2013-08-29 23:39:00,75.9,58.6,28.79,ENE,61,0.0,0.0,55,0.00,,CLR,0.00,VWS V14.00,2013-08-30 04:39:00,
2013-08-29 23:44:00,75.9,60.6,28.79,ENE,61,0.0,0.0,59,0.00,,CLR,0.00,VWS V14.00,2013-08-30 04:44:00,
2013-08-29 23:49:00,75.7,60.9,28.79,ENE,61,0.0,0.0,60,0.00,,CLR,0.00,VWS V14.00,2013-08-30 04:49:00,
2013-08-29 23:54:00,75.4,60.5,28.79,ENE,61,0.0,0.0,60,0.00,,CLR,0.00,VWS V14.00,2013-08-30 04:54:00,
2013-08-29 23:59:00,75.0,60.7,28.79,ENE,61,0.0,0.0,61,0.00,,CLR,0.00,VWS V14.00,2013-08-30 04:59:00,